Time;durP1;ratioP1;P1;durP2;ratioP2;P2;SDS_P1;SDS_P2;PMS_P1;PMS_P2;Temp;Humidity;BMP_temperature;BMP_pressure;BME280_temperature;BME280_humidity;BME280_pressure;Samples;Min_cycle;Max_cycle;Signal;HPM_P1;HPM_P2
2023/08/30 00:00:45;;;;;;;12.00;10.80;;;;;;;13.97;84.30;100751.28;5114380;28;20456;-65
2023/08/30 00:03:12;;;;;;;12.10;10.27;;;;;;;13.92;84.52;100750.81;5114619;28;20039;-65
2023/08/30 00:05:41;;;;;;;12.18;10.98;;;;;;;13.77;85.64;100755.56;5113862;28;20024;-65
2023/08/30 00:08:06;;;;;;;12.73;10.88;;;;;;;13.86;84.73;100755.66;5096701;27;20706;-66
2023/08/30 00:10:34;;;;;;;12.02;10.70;;;;;;;13.67;85.80;100752.72;5114821;27;20023;-65
2023/08/30 00:12:59;;;;;;;11.57;10.38;;;;;;;13.76;84.47;100752.00;5094515;28;20050;-65
2023/08/30 00:15:25;;;;;;;15.20;11.25;;;;;;;13.77;84.74;100750.19;5113984;28;20031;-64
2023/08/30 00:17:51;;;;;;;11.40;10.20;;;;;;;13.73;85.13;100736.19;5114808;27;20478;-65
2023/08/30 00:20:20;;;;;;;11.27;10.27;;;;;;;13.72;85.38;100739.00;5095362;28;20024;-65
2023/08/30 00:22:48;;;;;;;11.93;10.73;;;;;;;13.83;85.08;100734.53;5113979;28;20051;-65
2023/08/30 00:25:14;;;;;;;11.68;10.50;;;;;;;13.57;85.22;100730.38;5096051;28;20031;-64
2023/08/30 00:27:39;;;;;;;12.43;10.95;;;;;;;13.60;85.29;100740.81;5102281;27;20442;-65
2023/08/30 00:30:05;;;;;;;11.73;10.63;;;;;;;13.66;84.76;100736.81;5115880;27;20055;-66
2023/08/30 00:32:31;;;;;;;11.30;10.20;;;;;;;13.63;85.51;100733.41;5096275;28;20016;-65
2023/08/30 00:34:56;;;;;;;13.80;10.70;;;;;;;13.59;85.95;100736.44;5113252;28;20058;-64
2023/08/30 00:37:21;;;;;;;11.85;10.75;;;;;;;13.54;85.76;100731.44;5095501;27;20021;-64
2023/08/30 00:39:47;;;;;;;11.65;10.07;;;;;;;13.64;85.50;100734.25;5134239;27;20034;-65
2023/08/30 00:42:15;;;;;;;11.52;10.40;;;;;;;13.57;85.63;100731.22;5115744;27;20099;-64
2023/08/30 00:44:40;;;;;;;11.80;10.60;;;;;;;13.59;85.15;100715.06;5126978;27;20023;-65
2023/08/30 00:47:06;;;;;;;11.13;10.05;;;;;;;13.59;85.69;100718.59;5118633;27;20161;-65
2023/08/30 00:49:32;;;;;;;11.55;10.45;;;;;;;13.42;86.61;100721.72;5133546;27;20038;-64
2023/08/30 00:52:01;;;;;;;13.93;10.77;;;;;;;13.45;86.32;100715.28;5133777;27;20027;-64
2023/08/30 00:54:26;;;;;;;13.15;11.15;;;;;;;13.33;86.42;100704.56;5133895;27;20027;-65
2023/08/30 00:56:52;;;;;;;11.38;10.18;;;;;;;13.48;85.90;100707.88;5133184;27;20136;-65
2023/08/30 00:59:18;;;;;;;11.20;10.05;;;;;;;13.29;86.77;100705.75;5132947;27;20031;-64
2023/08/30 01:01:45;;;;;;;11.43;10.32;;;;;;;13.46;86.17;100711.63;5133222;27;20054;-65
2023/08/30 01:04:10;;;;;;;11.70;10.63;;;;;;;13.41;85.83;100706.63;5098761;27;20447;-64
2023/08/30 01:06:38;;;;;;;11.20;10.15;;;;;;;13.36;86.13;100706.16;5129524;27;20020;-65
2023/08/30 01:09:04;;;;;;;11.57;10.50;;;;;;;13.18;86.76;100703.91;5113221;28;20035;-64
2023/08/30 01:11:35;;;;;;;10.95;9.95;;;;;;;13.23;86.72;100711.53;5094664;28;20130;-64
2023/08/30 01:14:11;;;;;;;11.68;10.60;;;;;;;13.30;86.36;100707.47;5094554;28;20028;-64
2023/08/30 01:16:39;;;;;;;11.40;10.10;;;;;;;13.27;86.37;100707.72;5113081;28;20024;-65
2023/08/30 01:19:19;;;;;;;12.38;11.18;;;;;;;13.23;86.84;100708.03;5095735;28;20363;-66
2023/08/30 01:21:55;;;;;;;11.70;10.45;;;;;;;13.11;87.05;100697.31;5112991;28;20016;-64
2023/08/30 01:24:37;;;;;;;12.15;10.95;;;;;;;13.04;87.62;100703.25;5112621;28;20085;-65
2023/08/30 01:27:10;;;;;;;13.18;11.38;;;;;;;13.12;87.14;100706.19;5110731;27;20478;-64
2023/08/30 01:29:40;;;;;;;11.85;10.63;;;;;;;12.91;87.78;100695.28;5108858;28;20019;-65
2023/08/30 01:32:08;;;;;;;11.45;10.02;;;;;;;12.85;87.85;100696.63;5094585;28;20497;-64
2023/08/30 01:34:34;;;;;;;11.50;10.32;;;;;;;12.95;87.52;100678.94;5093688;28;20114;-65
2023/08/30 01:37:01;;;;;;;15.05;10.13;;;;;;;12.98;87.76;100693.88;5128969;27;20444;-64
2023/08/30 01:39:28;;;;;;;14.45;11.43;;;;;;;13.02;87.64;100694.50;5133076;27;20029;-64
2023/08/30 01:41:58;;;;;;;12.48;10.93;;;;;;;12.95;86.94;100686.94;5132886;27;20015;-65
2023/08/30 01:44:28;;;;;;;11.70;10.50;;;;;;;13.07;87.18;100695.00;5131104;27;20481;-64
2023/08/30 01:46:57;;;;;;;13.43;10.07;;;;;;;13.00;87.49;100696.41;5114525;27;20094;-64
2023/08/30 01:49:24;;;;;;;11.60;9.90;;;;;;;12.88;87.73;100688.41;5132371;27;20107;-64
2023/08/30 01:51:51;;;;;;;11.50;10.30;;;;;;;12.92;87.72;100692.53;5132504;27;20076;-64
2023/08/30 01:54:18;;;;;;;11.93;9.82;;;;;;;12.95;87.71;100684.28;5112411;27;20038;-64
2023/08/30 01:56:44;;;;;;;11.20;10.02;;;;;;;12.85;89.05;100690.41;5132867;27;20031;-64
2023/08/30 01:59:12;;;;;;;11.25;10.00;;;;;;;12.72;89.37;100695.84;5133047;27;20106;-64
2023/08/30 02:01:38;;;;;;;11.88;10.52;;;;;;;12.86;88.62;100686.81;5132479;27;20015;-64
2023/08/30 02:04:03;;;;;;;11.00;9.80;;;;;;;12.89;89.04;100686.56;5108781;28;20051;-64
2023/08/30 02:06:55;;;;;;;11.27;10.07;;;;;;;12.85;89.38;100679.75;5093583;28;20028;-64
2023/08/30 02:09:29;;;;;;;12.40;10.30;;;;;;;12.84;89.75;100691.41;5085491;28;20391;-64
2023/08/30 02:11:58;;;;;;;11.52;10.45;;;;;;;12.80;89.99;100701.47;5091759;28;20115;-64
2023/08/30 02:14:26;;;;;;;13.43;10.25;;;;;;;12.91;89.89;100689.94;5100765;28;20538;-65
2023/08/30 02:16:55;;;;;;;12.07;10.85;;;;;;;12.89;89.98;100683.91;5112062;28;20024;-65
2023/08/30 02:19:21;;;;;;;12.00;10.85;;;;;;;12.87;89.71;100672.47;5106741;28;20043;-65
2023/08/30 02:21:47;;;;;;;12.00;10.82;;;;;;;12.84;90.67;100676.22;5111918;28;20019;-64
2023/08/30 02:24:13;;;;;;;12.45;10.10;;;;;;;12.96;90.24;100677.13;5120427;28;20038;-64
2023/08/30 02:26:41;;;;;;;12.55;10.27;;;;;;;12.95;90.30;100665.59;5113243;28;20406;-65
2023/08/30 02:29:08;;;;;;;13.30;11.43;;;;;;;12.87;90.86;100670.66;5132576;28;20038;-64
2023/08/30 02:31:33;;;;;;;12.40;11.13;;;;;;;12.85;91.50;100664.59;5132498;28;20394;-64
2023/08/30 02:33:59;;;;;;;12.43;11.20;;;;;;;12.96;91.28;100661.09;5112020;28;20028;-64
2023/08/30 02:36:24;;;;;;;12.07;10.68;;;;;;;12.84;91.47;100646.88;5130547;28;20031;-65
2023/08/30 02:38:49;;;;;;;12.68;11.02;;;;;;;13.12;91.17;100664.31;5094176;28;20517;-64
2023/08/30 02:41:15;;;;;;;12.52;10.95;;;;;;;13.08;90.89;100662.81;5115267;28;20023;-65
2023/08/30 02:43:40;;;;;;;12.82;11.55;;;;;;;13.11;91.98;100657.25;5122514;27;20118;-65
2023/08/30 02:46:05;;;;;;;12.20;10.93;;;;;;;13.03;92.65;100657.00;5136246;27;20701;-65
2023/08/30 02:48:34;;;;;;;15.05;12.02;;;;;;;13.04;92.32;100653.38;5132273;27;20063;-64
2023/08/30 02:50:59;;;;;;;15.40;12.90;;;;;;;12.96;92.17;100635.25;5114903;28;20526;-65
2023/08/30 02:53:25;;;;;;;13.55;12.32;;;;;;;13.06;92.12;100650.56;5116581;27;20111;-65
2023/08/30 02:55:50;;;;;;;14.75;13.25;;;;;;;13.14;92.64;100649.00;5115748;28;20478;-64
2023/08/30 02:58:16;;;;;;;13.85;12.43;;;;;;;13.10;93.25;100654.72;5097530;28;20030;-65
2023/08/30 03:00:41;;;;;;;16.27;13.27;;;;;;;13.04;92.66;100644.50;5097849;28;20118;-64
2023/08/30 03:03:06;;;;;;;15.55;13.82;;;;;;;13.13;92.57;100641.97;5118661;27;20027;-64
2023/08/30 03:05:32;;;;;;;15.07;13.48;;;;;;;13.16;92.62;100638.22;5117113;27;20089;-64
2023/08/30 03:07:57;;;;;;;14.77;13.35;;;;;;;13.24;92.32;100624.28;5117654;27;20018;-65
2023/08/30 03:10:23;;;;;;;14.27;12.88;;;;;;;13.25;92.46;100637.53;5128544;27;20028;-65
2023/08/30 03:12:49;;;;;;;15.90;12.50;;;;;;;13.20;93.04;100631.66;5093553;28;20040;-65
2023/08/30 03:15:14;;;;;;;13.52;8.07;;;;;;;13.31;91.69;100625.53;5095861;28;20077;-64
2023/08/30 03:17:40;;;;;;;14.35;12.77;;;;;;;13.23;92.09;100634.09;5095226;28;20397;-65
2023/08/30 03:20:06;;;;;;;15.60;12.70;;;;;;;13.23;92.22;100638.59;5086457;28;20475;-64
2023/08/30 03:22:32;;;;;;;14.75;13.10;;;;;;;13.23;92.28;100634.09;5083114;28;20038;-65
2023/08/30 03:25:02;;;;;;;14.07;11.88;;;;;;;13.27;92.10;100638.28;5114982;28;20494;-65
2023/08/30 03:27:28;;;;;;;16.73;12.35;;;;;;;13.30;93.43;100629.19;5093258;28;20094;-64
2023/08/30 03:29:55;;;;;;;15.55;13.45;;;;;;;13.34;92.51;100631.47;5093256;28;20052;-65
2023/08/30 03:32:21;;;;;;;14.25;12.32;;;;;;;13.27;92.78;100621.41;5094346;28;20038;-65
2023/08/30 03:34:47;;;;;;;13.70;12.32;;;;;;;13.26;92.44;100615.19;5094488;28;20050;-64
2023/08/30 03:37:15;;;;;;;14.65;12.30;;;;;;;13.26;93.06;100615.19;5094830;28;20030;-65
2023/08/30 03:39:44;;;;;;;14.45;12.82;;;;;;;13.29;93.16;100608.75;5092789;28;20054;-64
2023/08/30 03:42:09;;;;;;;14.52;12.80;;;;;;;13.27;93.66;100600.88;5094415;28;20024;-64
2023/08/30 03:44:35;;;;;;;14.75;7.65;;;;;;;13.38;92.86;100594.69;5113948;28;20028;-65
2023/08/30 03:47:00;;;;;;;17.30;13.15;;;;;;;13.21;94.71;100584.44;5093103;28;20039;-65
2023/08/30 03:49:26;;;;;;;14.70;13.20;;;;;;;13.28;94.12;100573.19;5093622;28;20073;-64
2023/08/30 03:51:51;;;;;;;15.13;13.43;;;;;;;13.26;94.53;100561.78;5093969;28;20544;-65
2023/08/30 03:54:17;;;;;;;14.25;12.73;;;;;;;13.32;94.49;100558.59;5095184;28;20055;-65
2023/08/30 03:56:43;;;;;;;16.80;15.00;;;;;;;13.25;95.03;100568.09;5094316;28;20032;-65
2023/08/30 03:59:11;;;;;;;18.13;14.80;;;;;;;13.39;94.85;100556.31;5075921;28;20028;-65
2023/08/30 04:01:37;;;;;;;16.20;14.50;;;;;;;13.29;95.12;100553.50;5091879;28;20390;-65
2023/08/30 04:04:03;;;;;;;16.27;14.60;;;;;;;13.27;95.41;100554.63;5097636;28;20024;-65
2023/08/30 04:06:28;;;;;;;16.00;14.40;;;;;;;13.22;95.64;100543.41;5093559;28;20561;-64
2023/08/30 04:08:53;;;;;;;15.82;14.18;;;;;;;13.28;95.74;100534.94;5093269;28;20024;-64
2023/08/30 04:11:19;;;;;;;16.58;14.57;;;;;;;13.25;95.90;100537.84;5094567;28;20024;-64
2023/08/30 04:13:45;;;;;;;16.40;14.68;;;;;;;13.16;95.84;100531.41;5115527;27;20133;-64
2023/08/30 04:16:10;;;;;;;18.95;15.02;;;;;;;13.14;96.36;100533.34;5111817;28;20050;-64
2023/08/30 04:18:36;;;;;;;18.92;14.68;;;;;;;13.21;96.30;100539.03;5114186;28;20094;-64
2023/08/30 04:21:02;;;;;;;16.42;14.82;;;;;;;13.19;96.50;100544.50;5095161;28;20464;-65
2023/08/30 04:23:28;;;;;;;17.23;14.80;;;;;;;13.10;96.81;100535.41;5110328;27;20383;-64
2023/08/30 04:25:54;;;;;;;16.88;15.23;;;;;;;13.19;96.87;100531.16;5114275;27;20047;-65
2023/08/30 04:28:21;;;;;;;16.25;14.65;;;;;;;13.15;97.05;100541.25;5113234;28;20062;-64
2023/08/30 04:30:47;;;;;;;15.73;14.20;;;;;;;13.18;96.84;100538.31;5111695;28;20535;-65
2023/08/30 04:33:12;;;;;;;16.27;14.70;;;;;;;13.20;96.88;100532.84;5113974;27;20059;-65
2023/08/30 04:35:38;;;;;;;19.17;14.52;;;;;;;13.27;96.66;100534.09;5113426;28;20106;-64
2023/08/30 04:38:04;;;;;;;16.38;14.57;;;;;;;13.25;97.20;100530.69;5113157;28;20096;-64
2023/08/30 04:40:32;;;;;;;16.58;14.85;;;;;;;13.27;97.03;100528.78;5110658;28;20089;-65
2023/08/30 04:43:00;;;;;;;15.75;14.32;;;;;;;13.23;96.84;100535.28;5125115;27;20023;-65
2023/08/30 04:45:25;;;;;;;16.02;14.35;;;;;;;13.35;96.82;100520.13;5134005;27;20034;-65
2023/08/30 04:47:50;;;;;;;17.95;14.38;;;;;;;13.29;97.39;100521.47;5119931;27;20028;-65
2023/08/30 04:50:17;;;;;;;16.70;14.38;;;;;;;13.11;96.92;100489.03;5112127;28;20019;-64
2023/08/30 04:52:42;;;;;;;16.33;14.63;;;;;;;13.24;97.52;100510.28;5112931;27;20118;-65
2023/08/30 04:55:08;;;;;;;16.80;13.52;;;;;;;13.32;96.73;100523.03;5113271;28;20545;-65
2023/08/30 04:57:34;;;;;;;18.85;14.40;;;;;;;13.41;97.17;100519.63;5113120;28;20030;-66
2023/08/30 05:00:04;;;;;;;18.52;14.23;;;;;;;13.44;96.62;100510.53;5095136;28;20136;-65
2023/08/30 05:02:29;;;;;;;16.05;14.38;;;;;;;13.40;96.53;100501.91;5115147;27;20025;-64
2023/08/30 05:04:54;;;;;;;18.15;14.20;;;;;;;13.36;96.70;100508.50;5111034;28;20370;-64
2023/08/30 05:07:20;;;;;;;17.08;13.98;;;;;;;13.43;96.94;100503.50;5112725;28;20540;-65
2023/08/30 05:09:45;;;;;;;17.25;14.43;;;;;;;13.45;96.74;100504.22;5112876;28;20031;-64
2023/08/30 05:12:11;;;;;;;16.98;15.20;;;;;;;13.35;97.08;100491.63;5113754;27;20110;-65
2023/08/30 05:14:36;;;;;;;15.65;13.93;;;;;;;13.45;97.23;100501.56;5077478;28;20059;-65
2023/08/30 05:17:02;;;;;;;18.92;14.68;;;;;;;13.42;97.37;100491.97;5095093;28;20028;-65
2023/08/30 05:19:27;;;;;;;16.40;14.80;;;;;;;13.43;97.24;100488.31;5094085;28;20027;-65
2023/08/30 05:21:54;;;;;;;17.17;14.00;;;;;;;13.40;97.15;100483.22;5102270;27;20038;-66
2023/08/30 05:24:20;;;;;;;16.20;14.48;;;;;;;13.47;97.32;100488.91;5133252;27;20027;-65
2023/08/30 05:26:46;;;;;;;16.58;13.65;;;;;;;13.60;97.35;100484.28;5133120;27;20435;-65
2023/08/30 05:29:13;;;;;;;17.73;15.13;;;;;;;13.50;97.83;100486.84;5133243;27;20019;-65
2023/08/30 05:31:39;;;;;;;16.23;14.55;;;;;;;13.53;97.58;100491.94;5113099;27;20031;-65
2023/08/30 05:34:04;;;;;;;16.20;14.70;;;;;;;13.54;97.94;100495.47;5132395;27;20145;-65
2023/08/30 05:36:29;;;;;;;16.65;14.95;;;;;;;13.53;97.81;100488.41;5132704;27;20057;-65
2023/08/30 05:38:55;;;;;;;23.73;8.98;;;;;;;13.64;97.20;100475.03;5133147;27;20026;-65
2023/08/30 05:41:22;;;;;;;17.63;15.10;;;;;;;13.61;97.39;100483.28;5108137;28;20108;-65
2023/08/30 05:43:48;;;;;;;15.98;14.38;;;;;;;13.57;97.44;100476.50;5112312;28;20038;-65
2023/08/30 05:46:16;;;;;;;20.30;14.77;;;;;;;13.55;97.76;100470.44;5112612;28;20386;-65
2023/08/30 05:48:41;;;;;;;16.88;15.05;;;;;;;13.62;98.18;100474.31;5093885;28;20031;-65
2023/08/30 05:51:07;;;;;;;17.25;15.35;;;;;;;13.64;97.65;100465.19;5121952;27;20358;-65
2023/08/30 05:53:32;;;;;;;17.10;14.75;;;;;;;13.67;97.62;100458.72;5117560;27;20114;-65
2023/08/30 05:55:58;;;;;;;15.43;7.78;;;;;;;13.79;97.15;100467.56;5128522;27;20046;-64
2023/08/30 05:58:23;;;;;;;17.10;15.50;;;;;;;13.74;98.38;100459.94;5125528;27;20031;-65
2023/08/30 06:00:48;;;;;;;16.98;15.13;;;;;;;13.82;97.62;100460.16;5093600;28;20019;-65
2023/08/30 06:03:14;;;;;;;17.10;14.77;;;;;;;13.84;97.84;100463.53;5112353;28;20026;-65
2023/08/30 06:05:39;;;;;;;16.35;14.77;;;;;;;13.87;97.22;100454.41;5122138;27;20023;-65
2023/08/30 06:08:05;;;;;;;16.52;14.82;;;;;;;13.86;97.17;100458.91;5131696;27;20068;-66
2023/08/30 06:10:30;;;;;;;16.35;14.70;;;;;;;13.80;97.40;100464.78;5132182;27;20098;-65
2023/08/30 06:12:56;;;;;;;16.30;13.88;;;;;;;13.86;97.42;100458.91;5132104;28;20086;-66
2023/08/30 06:15:21;;;;;;;18.77;14.50;;;;;;;13.79;97.80;100449.69;5115694;28;20040;-66
2023/08/30 06:17:46;;;;;;;15.15;13.57;;;;;;;13.88;97.65;100460.59;5098559;28;20374;-66
2023/08/30 06:20:12;;;;;;;15.57;14.02;;;;;;;13.90;98.00;100456.84;5093185;28;20024;-65
2023/08/30 06:22:38;;;;;;;16.08;12.93;;;;;;;13.93;97.38;100453.91;5112442;28;20442;-64
2023/08/30 06:25:06;;;;;;;17.90;13.85;;;;;;;13.92;97.08;100448.69;5106438;28;20031;-65
2023/08/30 06:27:32;;;;;;;16.88;14.02;;;;;;;13.90;97.13;100445.28;5109754;28;20068;-65
2023/08/30 06:29:57;;;;;;;14.80;13.30;;;;;;;13.89;97.25;100448.97;5092434;28;20415;-64
2023/08/30 06:32:23;;;;;;;16.67;13.57;;;;;;;13.87;97.80;100443.72;5104808;28;20046;-65
2023/08/30 06:34:51;;;;;;;17.70;14.70;;;;;;;13.83;97.44;100436.94;5107572;28;20050;-64
2023/08/30 06:37:17;;;;;;;16.35;12.80;;;;;;;13.95;98.14;100456.47;5105674;28;20080;-65
2023/08/30 06:39:42;;;;;;;14.88;13.25;;;;;;;13.98;99.10;100459.72;5107433;28;20039;-66
2023/08/30 06:42:07;;;;;;;17.40;13.52;;;;;;;14.00;99.57;100459.56;5110991;28;20032;-64
2023/08/30 06:44:33;;;;;;;19.92;14.40;;;;;;;14.05;99.79;100460.91;5111650;28;20030;-65
2023/08/30 06:46:58;;;;;;;15.10;13.40;;;;;;;14.05;100.00;100452.88;5111812;28;20061;-65
2023/08/30 06:49:24;;;;;;;17.33;13.40;;;;;;;14.06;99.87;100457.25;5111299;28;20505;-64
2023/08/30 06:51:50;;;;;;;15.95;13.35;;;;;;;13.94;99.79;100447.59;5089715;28;20382;-64
2023/08/30 06:54:15;;;;;;;20.25;15.40;;;;;;;13.98;100.00;100465.06;5111260;28;20039;-64
2023/08/30 06:56:43;;;;;;;16.33;14.52;;;;;;;13.91;100.00;100463.03;5117550;28;20027;-64
2023/08/30 06:59:08;;;;;;;17.02;15.23;;;;;;;13.94;100.00;100473.47;5112950;28;20401;-64
2023/08/30 07:01:34;;;;;;;18.02;15.70;;;;;;;13.97;100.00;100466.06;5123016;28;20019;-65
2023/08/30 07:03:59;;;;;;;17.60;15.43;;;;;;;13.96;100.00;100456.31;5111720;28;20142;-65
2023/08/30 07:06:24;;;;;;;19.98;15.35;;;;;;;13.87;100.00;100462.44;5111805;28;20039;-64
2023/08/30 07:08:50;;;;;;;16.48;14.75;;;;;;;13.86;100.00;100458.06;5093528;28;20592;-64
2023/08/30 07:11:15;;;;;;;18.55;15.48;;;;;;;13.85;100.00;100438.53;5093187;28;20039;-65
2023/08/30 07:13:41;;;;;;;16.38;14.77;;;;;;;13.71;100.00;100435.31;5093113;28;20048;-64
2023/08/30 07:16:09;;;;;;;18.67;14.73;;;;;;;13.64;100.00;100427.75;5114991;28;20050;-65
2023/08/30 07:18:34;;;;;;;17.58;15.30;;;;;;;13.60;100.00;100420.16;5106031;28;20024;-64
2023/08/30 07:20:59;;;;;;;18.17;13.80;;;;;;;13.54;100.00;100417.97;5110736;28;20023;-65
2023/08/30 07:23:25;;;;;;;16.38;14.52;;;;;;;13.48;100.00;100422.00;5111126;28;20535;-64
2023/08/30 07:25:51;;;;;;;14.35;13.05;;;;;;;13.46;100.00;100409.75;5111164;28;20020;-65
2023/08/30 07:28:17;;;;;;;14.13;12.70;;;;;;;13.51;100.00;100407.53;5115618;27;20081;-64
2023/08/30 07:30:44;;;;;;;16.00;14.32;;;;;;;13.46;100.00;100413.25;5115211;28;20072;-64
2023/08/30 07:33:10;;;;;;;15.52;13.35;;;;;;;13.39;100.00;100404.91;5114854;28;20478;-64
2023/08/30 07:35:35;;;;;;;14.43;12.93;;;;;;;13.54;100.00;100409.97;5074973;27;20031;-65
2023/08/30 07:38:00;;;;;;;13.07;11.77;;;;;;;13.47;100.00;100411.44;5093298;27;20107;-66
2023/08/30 07:40:28;;;;;;;14.48;13.07;;;;;;;13.47;100.00;100403.41;5094309;28;20016;-65
2023/08/30 07:42:53;;;;;;;14.05;12.68;;;;;;;13.53;100.00;100400.22;5111983;28;20024;-65
2023/08/30 07:45:19;;;;;;;13.63;12.32;;;;;;;13.44;100.00;100391.16;5113802;28;20023;-65
2023/08/30 07:47:44;;;;;;;12.93;11.27;;;;;;;13.49;100.00;100412.16;5113442;27;20020;-65
2023/08/30 07:50:09;;;;;;;13.15;11.68;;;;;;;13.44;100.00;100391.16;5113952;28;20122;-65
2023/08/30 07:52:35;;;;;;;12.23;11.07;;;;;;;13.36;100.00;100389.13;5111617;28;20513;-65
2023/08/30 07:55:01;;;;;;;12.82;11.48;;;;;;;13.43;100.00;100401.97;5085218;28;20100;-66
2023/08/30 07:57:27;;;;;;;11.73;10.48;;;;;;;13.40;100.00;100397.72;5111390;27;20030;-65
2023/08/30 07:59:55;;;;;;;12.25;11.10;;;;;;;13.43;100.00;100392.13;5109150;28;20019;-66
2023/08/30 08:02:20;;;;;;;12.70;10.80;;;;;;;13.52;100.00;100391.38;5110711;28;20024;-65
2023/08/30 08:04:45;;;;;;;12.85;11.68;;;;;;;13.55;100.00;100396.47;5111357;28;20027;-65
2023/08/30 08:07:11;;;;;;;12.23;11.02;;;;;;;13.54;100.00;100397.44;5095490;28;20114;-66
2023/08/30 08:09:37;;;;;;;11.15;10.05;;;;;;;13.57;100.00;100402.53;5116695;27;20615;-65
2023/08/30 08:12:03;;;;;;;11.77;10.38;;;;;;;13.54;100.00;100402.78;5090479;28;20051;-65
2023/08/30 08:14:31;;;;;;;11.18;10.07;;;;;;;13.47;100.00;100401.63;5100821;27;20031;-66
2023/08/30 08:16:56;;;;;;;11.60;10.05;;;;;;;13.52;100.00;100404.72;5106836;28;20020;-65
2023/08/30 08:19:21;;;;;;;10.95;9.90;;;;;;;13.49;100.00;100404.13;5108437;27;20085;-65
2023/08/30 08:21:47;;;;;;;11.10;10.10;;;;;;;13.42;100.00;100393.13;5104260;28;20027;-66
2023/08/30 08:24:13;;;;;;;11.15;10.05;;;;;;;13.49;100.00;100409.50;5107682;27;20055;-65
2023/08/30 08:26:39;;;;;;;7.18;5.50;;;;;;;13.54;100.00;100399.28;5088689;28;20026;-66
2023/08/30 08:29:04;;;;;;;10.10;9.20;;;;;;;13.51;100.00;100391.50;5109975;27;20355;-66
2023/08/30 08:31:30;;;;;;;10.05;9.07;;;;;;;13.52;100.00;100410.06;5107693;27;20608;-66
2023/08/30 08:34:10;;;;;;;9.48;8.68;;;;;;;13.62;100.00;100403.00;5107056;28;20027;-66
2023/08/30 08:36:37;;;;;;;9.95;8.95;;;;;;;13.55;100.00;100398.28;5104354;28;20032;-66
2023/08/30 08:39:04;;;;;;;9.77;8.77;;;;;;;13.54;100.00;100389.44;5116823;27;20031;-66
2023/08/30 08:41:38;;;;;;;10.10;8.77;;;;;;;13.62;100.00;100403.00;5109175;27;20516;-65
2023/08/30 08:44:08;;;;;;;10.25;9.25;;;;;;;13.78;100.00;100399.06;5101310;27;20456;-65
2023/08/30 08:46:35;;;;;;;9.50;8.68;;;;;;;13.83;100.00;100397.69;5100950;28;20027;-66
2023/08/30 08:49:22;;;;;;;10.10;9.10;;;;;;;13.71;100.00;100387.19;5109855;27;20478;-65
2023/08/30 08:51:48;;;;;;;9.23;8.35;;;;;;;13.76;100.00;100398.31;5110857;27;20039;-65
2023/08/30 08:54:14;;;;;;;8.40;7.70;;;;;;;13.68;100.00;100392.75;5104620;28;20024;-66
2023/08/30 08:56:40;;;;;;;7.88;7.13;;;;;;;13.81;100.00;100398.78;5107909;28;20030;-66
2023/08/30 08:59:07;;;;;;;8.25;7.40;;;;;;;13.78;100.00;100407.91;5112091;27;20039;-65
2023/08/30 09:01:35;;;;;;;8.38;7.57;;;;;;;13.75;100.00;100388.63;5113869;27;20027;-66
2023/08/30 09:04:07;;;;;;;8.88;8.07;;;;;;;13.90;100.00;100414.06;5086724;28;20038;-65
2023/08/30 09:06:34;;;;;;;7.45;6.85;;;;;;;13.99;100.00;100402.59;5106318;28;20055;-65
2023/08/30 09:09:01;;;;;;;9.05;8.15;;;;;;;14.03;100.00;100404.03;5100847;28;20031;-65
2023/08/30 09:11:26;;;;;;;8.40;7.60;;;;;;;14.12;100.00;100399.75;5104411;28;20024;-65
2023/08/30 09:13:52;;;;;;;8.75;8.05;;;;;;;14.31;100.00;100393.66;5089303;27;20073;-65
2023/08/30 09:16:19;;;;;;;10.10;8.45;;;;;;;14.36;100.00;100399.47;5103233;28;20028;-65
2023/08/30 09:18:45;;;;;;;8.40;7.70;;;;;;;14.46;100.00;100396.81;5107859;27;20026;-65
2023/08/30 09:21:11;;;;;;;8.93;8.23;;;;;;;14.59;100.00;100397.50;5112905;28;20039;-65
2023/08/30 09:23:37;;;;;;;8.18;7.47;;;;;;;14.54;100.00;100381.00;5112964;28;20035;-65
2023/08/30 09:26:04;;;;;;;8.25;7.45;;;;;;;14.56;100.00;100396.91;5112667;28;20031;-65
2023/08/30 09:28:29;;;;;;;8.00;7.30;;;;;;;14.51;100.00;100400.84;5097409;27;20034;-65
2023/08/30 09:30:58;;;;;;;8.82;8.02;;;;;;;14.50;100.00;100393.75;5132906;27;20034;-66
2023/08/30 09:33:31;;;;;;;9.70;8.70;;;;;;;14.69;100.00;100401.06;5114511;27;20019;-65
2023/08/30 09:35:57;;;;;;;9.05;8.25;;;;;;;14.79;100.00;100398.41;5132587;27;20027;-65
2023/08/30 09:38:23;;;;;;;8.70;7.65;;;;;;;14.85;100.00;100405.06;5132985;27;20106;-66
2023/08/30 09:40:51;;;;;;;8.43;7.72;;;;;;;14.85;100.00;100405.06;5118978;27;20557;-65
2023/08/30 09:43:24;;;;;;;9.10;8.40;;;;;;;14.88;100.00;100399.44;5112149;28;20028;-67
2023/08/30 09:45:52;;;;;;;9.15;8.23;;;;;;;14.88;100.00;100389.59;5128350;27;20020;-65
2023/08/30 09:48:29;;;;;;;10.30;8.53;;;;;;;14.99;100.00;100405.53;5097523;27;20019;-65
2023/08/30 09:50:57;;;;;;;8.88;8.07;;;;;;;15.04;100.00;100390.91;5131856;27;20021;-65
2023/08/30 09:53:29;;;;;;;9.50;8.70;;;;;;;15.31;100.00;100403.63;5121784;27;20222;-66
2023/08/30 09:55:56;;;;;;;9.48;8.60;;;;;;;15.55;100.00;100405.94;5112178;28;20031;-65
2023/08/30 09:58:22;;;;;;;9.95;9.15;;;;;;;15.58;100.00;100392.25;5094131;28;20031;-65
2023/08/30 10:00:48;;;;;;;9.85;9.05;;;;;;;15.66;100.00;100405.81;5112089;28;20027;-65
2023/08/30 10:03:16;;;;;;;10.65;9.65;;;;;;;15.96;100.00;100388.72;5113205;27;20032;-65
2023/08/30 10:05:43;;;;;;;9.65;8.80;;;;;;;16.18;100.00;100402.81;5112003;28;20027;-66
2023/08/30 10:08:09;;;;;;;10.52;9.57;;;;;;;16.38;100.00;100385.69;5112158;28;20012;-65
2023/08/30 10:10:37;;;;;;;10.02;9.13;;;;;;;16.47;100.00;100384.84;5112048;28;20032;-66
2023/08/30 10:13:04;;;;;;;10.00;9.00;;;;;;;16.86;100.00;100390.06;5094769;28;20035;-65
2023/08/30 10:15:38;;;;;;;10.23;9.43;;;;;;;17.14;100.00;100380.16;5090535;28;20084;-65
2023/08/30 10:18:05;;;;;;;9.38;8.45;;;;;;;17.34;100.00;100380.03;5085883;28;20039;-66
2023/08/30 10:20:31;;;;;;;9.88;8.90;;;;;;;17.34;100.00;100377.34;5103791;28;20027;-66
2023/08/30 10:22:58;;;;;;;10.13;9.20;;;;;;;17.53;100.00;100373.66;5091441;28;20020;-66
2023/08/30 10:25:30;;;;;;;8.60;8.00;;;;;;;17.79;100.00;100374.59;5109486;28;20031;-66
2023/08/30 10:27:56;;;;;;;9.18;8.40;;;;;;;17.96;99.46;100377.44;5127950;28;20028;-66
2023/08/30 10:30:23;;;;;;;8.93;8.13;;;;;;;18.08;99.19;100368.94;5111610;28;20490;-66
2023/08/30 10:32:49;;;;;;;9.32;8.63;;;;;;;18.24;99.35;100367.38;5111736;28;20026;-66
2023/08/30 10:35:16;;;;;;;8.30;7.57;;;;;;;18.38;96.15;100366.78;5104055;28;20027;-65
2023/08/30 10:37:42;;;;;;;9.52;8.55;;;;;;;18.44;94.53;100371.53;5114311;28;20023;-66
2023/08/30 10:40:08;;;;;;;8.50;7.80;;;;;;;18.54;92.27;100374.13;5113754;28;20026;-65
2023/08/30 10:42:34;;;;;;;8.30;7.28;;;;;;;18.66;91.13;100380.09;5113867;28;20034;-65
2023/08/30 10:45:04;;;;;;;7.93;7.25;;;;;;;18.76;91.21;100378.13;5098119;28;20036;-65
2023/08/30 10:47:39;;;;;;;8.07;7.43;;;;;;;18.88;92.91;100376.00;5093211;28;20038;-66
2023/08/30 10:50:07;;;;;;;8.00;7.30;;;;;;;19.24;95.15;100361.28;5092717;28;20039;-65
2023/08/30 10:52:33;;;;;;;6.65;6.05;;;;;;;19.23;85.53;100367.69;5111692;28;20020;-65
2023/08/30 10:55:12;;;;;;;6.97;6.00;;;;;;;19.09;84.94;100373.72;5105437;28;20030;-65
2023/08/30 10:57:41;;;;;;;7.90;7.30;;;;;;;18.82;85.62;100367.56;5132373;28;20027;-66
2023/08/30 11:00:20;;;;;;;7.82;6.95;;;;;;;18.81;86.34;100363.16;5113326;27;20114;-66
2023/08/30 11:02:51;;;;;;;7.85;6.90;;;;;;;18.79;88.83;100362.47;5117863;27;20045;-66
2023/08/30 11:05:18;;;;;;;10.95;7.60;;;;;;;18.68;88.22;100362.75;5097095;28;20035;-66
2023/08/30 11:07:45;;;;;;;7.47;6.80;;;;;;;18.70;89.95;100368.81;5097463;28;20026;-66